CAPE MAY HARBOR AT CAPE MAY NJ US USGS current weather conditions

sailwx.info

Wind from 275 at 14 knots gusting 23

Air temperature 12.4° C
Dewpoint 4.4° C

Last reported at 2019-Oct-18 15:12 UTC.
Time now 2019-Oct-18 17:10 UTC

Location: N 38°57' W 074°53'.
View on Google Maps.

See reports from other nearby stations

  
Tides and Currents Weather Stations Pressure Air Temp Water Temp Dewpoint Dewpoint Depression Visibility Wind Speed Wind Dir Waves Ship Positions
date/time (UTC)wind fromknots sea level pressurealtimeterstation pressurevisibilityair tempwater tempwave heightnotes
2019-Oct-18 15:12 275 14 gusting 23 12.4
2019-Oct-18 15:06 278 15 gusting 21 12.2
2019-Oct-18 15:00 278 16 gusting 23 12.2
2019-Oct-18 14:54 273 17 gusting 24 12.2
2019-Oct-18 14:48 272 15 gusting 22 12.4
2019-Oct-18 14:42 277 16 gusting 23 12.2
2019-Oct-18 14:36 285 15 gusting 21 12.1
2019-Oct-18 14:30 272 14 gusting 22 12.1
2019-Oct-18 14:24 276 16 gusting 25 11.9
2019-Oct-18 14:18 273 13 gusting 20 12.0
2019-Oct-18 14:12 271 14 gusting 19 12.0
2019-Oct-18 14:06 270 14 gusting 20 11.9
2019-Oct-18 14:00 272 13 gusting 19 12.0
2019-Oct-18 13:54 271 14 gusting 22 11.9
2019-Oct-18 13:48 271 14 gusting 22 11.7
2019-Oct-18 13:42 273 15 gusting 23 11.8
2019-Oct-18 13:36 275 14 gusting 22 11.6
2019-Oct-18 13:30 269 15 gusting 24 11.6
2019-Oct-18 13:24 277 13 gusting 22 11.6
2019-Oct-18 13:18 270 13 gusting 21 11.5
2019-Oct-18 13:12 265 15 gusting 21 11.6
2019-Oct-18 13:06 268 14 gusting 23 11.6
2019-Oct-18 13:00 269 12 gusting 17 11.5
2019-Oct-18 12:54 270 14 gusting 21 11.5
2019-Oct-18 12:48 268 14 gusting 22 11.5
2019-Oct-18 12:42 275 14 gusting 19 11.5
2019-Oct-18 12:36 276 15 gusting 23 11.4
2019-Oct-18 12:30 269 13 gusting 20 11.4
2019-Oct-18 12:24 270 14 gusting 19 11.3
2019-Oct-18 12:18 268 13 gusting 20 11.3
2019-Oct-18 12:12 271 13 gusting 17 11.2
2019-Oct-18 12:06 264 14 gusting 19 11.2
2019-Oct-18 12:00 266 13 gusting 20 11.2
2019-Oct-18 11:54 266 13 gusting 19 11.1
2019-Oct-18 11:48 266 13 gusting 21 11.1
2019-Oct-18 11:42 264 12 gusting 18 11.1
2019-Oct-18 11:36 264 15 gusting 21 11.1
2019-Oct-18 11:30 264 16 gusting 21 11.1
2019-Oct-18 11:24 264 15 gusting 21 11.1
2019-Oct-18 11:18 264 13 gusting 20 11.1
2019-Oct-18 11:12 263 15 gusting 21 11.1
2019-Oct-18 11:06 260 15 gusting 21 11.2
2019-Oct-18 11:00 261 13 gusting 20 11.1
2019-Oct-18 10:54 268 11 gusting 18 11.1
2019-Oct-18 10:48 268 13 gusting 20 11.1
2019-Oct-18 10:42 266 13 gusting 19 11.2
2019-Oct-18 10:36 267 13 gusting 19 11.2
2019-Oct-18 10:30 266 15 gusting 23 11.2
2019-Oct-18 10:24 264 14 gusting 21 11.2
2019-Oct-18 10:18 263 15 gusting 21 11.2
2019-Oct-18 10:12 263 15 gusting 21 11.2
2019-Oct-18 10:06 267 14 gusting 21 11.2
2019-Oct-18 10:00 262 15 gusting 21 11.3
2019-Oct-18 09:54 266 15 gusting 22 11.3
2019-Oct-18 09:48 265 17 gusting 27 11.3
2019-Oct-18 09:42 263 16 gusting 24 11.4
2019-Oct-18 09:36 265 15 gusting 22 11.3
2019-Oct-18 09:30 263 14 gusting 21 11.3
2019-Oct-18 09:24 265 13 gusting 20 11.4
2019-Oct-18 09:18 263 15 gusting 20 11.4
2019-Oct-18 09:12 262 16 gusting 24 11.4
2019-Oct-18 09:06 262 16 gusting 23 11.4
2019-Oct-18 09:00 269 15 gusting 23 11.5
2019-Oct-18 08:54 266 16 gusting 23 11.5
2019-Oct-18 08:48 269 16 gusting 23 11.5
2019-Oct-18 08:42 267 16 gusting 22 11.5
2019-Oct-18 08:36 265 17 gusting 25 11.5
2019-Oct-18 08:30 265 18 gusting 26 11.6
2019-Oct-18 08:24 262 18 gusting 25 11.6
2019-Oct-18 08:18 263 19 gusting 26 11.6
2019-Oct-18 08:12 265 16 gusting 23 11.6
2019-Oct-18 08:06 263 19 gusting 24 11.7
2019-Oct-18 08:00 266 19 gusting 27 11.6
2019-Oct-18 07:54 265 17 gusting 26 11.7
2019-Oct-18 07:48 261 17 gusting 23 11.8
2019-Oct-18 07:42 265 18 gusting 26 11.8
2019-Oct-18 07:36 265 17 gusting 22 11.8
2019-Oct-18 07:30 264 17 gusting 23 11.8
2019-Oct-18 07:24 263 16 gusting 23 11.8
2019-Oct-18 07:18 266 16 gusting 22 11.8
2019-Oct-18 07:12 262 17 gusting 25 11.8
2019-Oct-18 07:06 263 17 gusting 24 11.8
2019-Oct-18 07:00 262 19 gusting 29 11.8
2019-Oct-18 06:54 264 14 gusting 23 11.9
2019-Oct-18 06:48 265 14 gusting 20 12.0
2019-Oct-18 06:42 263 17 gusting 24 12.0
2019-Oct-18 06:36 261 17 gusting 25 12.0
2019-Oct-18 06:30 264 16 gusting 23 12.1
2019-Oct-18 06:24 266 18 gusting 28 12.2
2019-Oct-18 06:18 263 18 gusting 28 12.2
2019-Oct-18 06:12 262 18 gusting 26 12.2
2019-Oct-18 06:06 269 20 gusting 31 12.2
2019-Oct-18 06:00 269 18 gusting 26 12.2
2019-Oct-18 05:54 271 18 gusting 26 12.2
2019-Oct-18 05:48 264 21 gusting 30 12.3
2019-Oct-18 05:42 263 18 gusting 28 12.3
2019-Oct-18 05:36 262 21 gusting 30 12.3
2019-Oct-18 05:30 262 22 gusting 30 12.3
2019-Oct-18 05:24 266 21 gusting 31 12.3
2019-Oct-18 05:18 266 18 gusting 30 12.3
2019-Oct-18 05:12 261 21 gusting 27 12.4
2019-Oct-18 05:06 264 21 gusting 31 12.3
2019-Oct-18 05:00 264 21 gusting 29 12.4
2019-Oct-18 04:54 263 22 gusting 30 12.4
2019-Oct-18 04:48 264 21 gusting 30 12.4
2019-Oct-18 04:42 262 19 gusting 27 12.4
2019-Oct-18 04:36 262 20 gusting 30 12.5
2019-Oct-18 04:30 261 20 gusting 29 12.5
2019-Oct-18 04:24 263 21 gusting 30 12.5
2019-Oct-18 04:18 260 21 gusting 30 12.6
2019-Oct-18 04:12 263 19 gusting 29 12.6
2019-Oct-18 04:06 266 20 gusting 27 12.6
2019-Oct-18 04:00 261 22 gusting 30 12.7
2019-Oct-18 03:54 261 23 gusting 33 12.7
2019-Oct-18 03:48 260 23 gusting 33 12.7
2019-Oct-18 03:42 265 24 gusting 33 12.7
2019-Oct-18 03:36 263 20 gusting 29 12.8
2019-Oct-18 03:30 264 24 gusting 36 12.8
2019-Oct-18 03:24 263 25 gusting 35 12.8
2019-Oct-18 03:18 261 21 gusting 32 12.9
2019-Oct-18 03:12 266 23 gusting 31 12.8
2019-Oct-18 03:06 266 19 gusting 28 12.9
2019-Oct-18 03:00 263 21 gusting 31 12.9
2019-Oct-18 02:54 260 20 gusting 28 13.0
2019-Oct-18 02:48 260 21 gusting 32 13.0
2019-Oct-18 02:42 259 22 gusting 31 13.0
2019-Oct-18 02:36 260 22 gusting 30 13.0
2019-Oct-18 02:30 256 20 gusting 30 13.1
2019-Oct-18 02:24 260 20 gusting 29 13.1
2019-Oct-18 02:18 258 19 gusting 31 13.1
2019-Oct-18 02:12 258 19 gusting 29 13.1
2019-Oct-18 02:06 253 19 gusting 36 13.2
2019-Oct-18 02:00 254 21 gusting 30 13.2
2019-Oct-18 01:54 255 20 gusting 30 13.2
2019-Oct-18 01:48 251 18 gusting 27 13.2
2019-Oct-18 01:42 247 19 gusting 30 13.2
2019-Oct-18 01:36 248 19 gusting 28 13.2
2019-Oct-18 01:30 249 18 gusting 31 13.3
2019-Oct-18 01:24 252 18 gusting 29 13.3
2019-Oct-18 01:18 252 20 gusting 31 13.3
2019-Oct-18 01:12 251 19 gusting 29 13.3
2019-Oct-18 01:06 248 19 gusting 29 13.3
2019-Oct-18 01:00 245 17 gusting 31 13.3
2019-Oct-18 00:54 245 18 gusting 29 13.3
2019-Oct-18 00:48 244 19 gusting 32 13.3
2019-Oct-18 00:42 244 21 gusting 33 13.2
2019-Oct-18 00:36 245 20 gusting 35 13.2
2019-Oct-18 00:30 246 18 gusting 27 13.2
2019-Oct-18 00:24 244 18 gusting 28 13.2
2019-Oct-18 00:18 236 18 gusting 31 13.2
2019-Oct-18 00:12 236 18 gusting 30 13.3
2019-Oct-18 00:06 241 18 gusting 30 13.3
2019-Oct-18 00:00 238 17 gusting 30 13.3
2019-Oct-17 23:48 236 19 gusting 31 13.4
2019-Oct-17 23:42 236 20 gusting 33 13.5
2019-Oct-17 23:36 241 18 gusting 28 13.5
2019-Oct-17 23:30 239 19 gusting 32 13.5
2019-Oct-17 23:24 236 17 gusting 30 13.6
2019-Oct-17 23:18 238 17 gusting 27 13.6
2019-Oct-17 23:12 235 16 gusting 30 13.7
2019-Oct-17 23:06 242 19 gusting 32 13.7
2019-Oct-17 23:00 245 18 gusting 31 13.7
2019-Oct-17 22:54 243 19 gusting 30 13.7
2019-Oct-17 22:48 240 16 gusting 30 13.8
2019-Oct-17 22:42 239 20 gusting 32 13.8
2019-Oct-17 22:36 239 21 gusting 33 13.8
2019-Oct-17 22:30 239 20 gusting 36 13.9
2019-Oct-17 22:24 241 19 gusting 30 14.0
2019-Oct-17 22:18 240 21 gusting 33 14.1
2019-Oct-17 22:12 235 21 gusting 34 14.1
2019-Oct-17 22:06 242 20 gusting 32 14.3
2019-Oct-17 22:00 237 18 gusting 30 14.4
2019-Oct-17 21:54 241 21 gusting 33 14.5
2019-Oct-17 21:48 236 21 gusting 34 14.5
2019-Oct-17 21:42 235 20 gusting 32 14.6
2019-Oct-17 21:36 236 19 gusting 33 14.7
2019-Oct-17 21:30 235 19 gusting 31 14.9
2019-Oct-17 21:24 238 18 gusting 30 14.9
2019-Oct-17 21:18 237 21 gusting 31 14.9
2019-Oct-17 21:12 228 16 gusting 30 15.0
2019-Oct-17 21:06 233 19 gusting 31 15.0
2019-Oct-17 21:00 226 19 gusting 32 15.0
2019-Oct-17 20:54 232 20 gusting 35 15.1
2019-Oct-17 20:48 234 20 gusting 36 15.1
2019-Oct-17 20:42 235 20 gusting 32 15.3
2019-Oct-17 20:36 236 20 gusting 31 15.3
2019-Oct-17 20:30 233 19 gusting 35 15.3
2019-Oct-17 20:24 231 20 gusting 33 15.2
2019-Oct-17 20:18 233 21 gusting 32 15.2
2019-Oct-17 20:12 233 19 gusting 30 15.3
2019-Oct-17 20:06 239 19 gusting 31 15.2
2019-Oct-17 20:00 237 21 gusting 32 15.3
2019-Oct-17 19:54 232 21 gusting 34 15.2
2019-Oct-17 19:48 232 19 gusting 33 15.3
2019-Oct-17 19:42 236 21 gusting 35 15.3
2019-Oct-17 19:36 240 19 gusting 31 15.2
2019-Oct-17 19:30 240 22 gusting 34 15.2
2019-Oct-17 19:24 236 21 gusting 32 15.3
2019-Oct-17 19:18 242 21 gusting 36 15.3
2019-Oct-17 19:12 236 21 gusting 37 15.3
2019-Oct-17 19:06 240 19 gusting 31 15.2
2019-Oct-17 18:54 239 24 gusting 35 15.2
2019-Oct-17 18:48 235 21 gusting 35 15.2
2019-Oct-17 18:42 233 24 gusting 38 15.2
2019-Oct-17 18:36 239 23 gusting 37 15.2
2019-Oct-17 18:30 238 23 gusting 42 15.2
2019-Oct-17 18:24 241 21 gusting 35 15.1
2019-Oct-17 18:18 245 23 gusting 39 15.1
2019-Oct-17 18:12 242 23 gusting 37 15.1
2019-Oct-17 18:06 240 23 gusting 35 15.1
2019-Oct-17 18:00 241 24 gusting 39 15.1
2019-Oct-17 17:54 243 26 gusting 43 15.0
2019-Oct-17 17:48 246 25 gusting 36 14.9
2019-Oct-17 17:42 246 23 gusting 41 14.9
2019-Oct-17 17:36 248 25 gusting 39 14.8
2019-Oct-17 17:30 243 24 gusting 39 14.9
2019-Oct-17 17:24 250 24 gusting 35 14.7
2019-Oct-17 17:18 248 26 gusting 46 14.6
2019-Oct-17 17:12 247 21 gusting 33 14.7
2019-Oct-17 17:06 245 22 gusting 37 14.6
2019-Oct-17 17:00 249 24 gusting 35 14.6
2019-Oct-17 16:54 247 25 gusting 39 14.5
2019-Oct-17 16:48 249 24 gusting 36 14.5
2019-Oct-17 16:42 245 22 gusting 38 14.4
2019-Oct-17 16:36 246 23 gusting 34 14.4
2019-Oct-17 16:30 247 21 gusting 36 14.3
2019-Oct-17 16:24 251 23 gusting 33 14.3
2019-Oct-17 16:18 243 20 gusting 30 14.3
2019-Oct-17 16:12 242 20 gusting 33 14.2
2019-Oct-17 16:06 254 22 gusting 34 14.1
2019-Oct-17 16:00 247 21 gusting 36 14.0
2019-Oct-17 15:54 243 22 gusting 34 14.0
2019-Oct-17 15:48 239 22 gusting 37 14.0
2019-Oct-17 15:42 241 23 gusting 38 13.8
2019-Oct-17 15:36 251 24 gusting 40 13.8
2019-Oct-17 15:30 249 20 gusting 31 13.9
2019-Oct-17 15:24 245 23 gusting 35 13.8
2019-Oct-17 15:18 244 21 gusting 35 13.7
2019-Oct-17 15:12 245 24 gusting 39 13.8
2019-Oct-17 15:06 241 23 gusting 39 13.8
2019-Oct-17 15:00 244 23 gusting 43 13.7
2019-Oct-17 14:54 243 23 gusting 39 13.7
2019-Oct-17 14:48 248 18 gusting 29 13.7
2019-Oct-17 14:42 249 21 gusting 34 13.5
2019-Oct-17 14:36 238 24 gusting 37 13.6
2019-Oct-17 14:30 241 22 gusting 35 13.5
2019-Oct-17 14:24 231 21 gusting 34 13.5
2019-Oct-17 14:18 230 21 gusting 34 13.5
2019-Oct-17 14:12 244 22 gusting 35 13.6
2019-Oct-17 14:06 243 22 gusting 37 13.7
2019-Oct-17 14:00 245 22 gusting 34 13.6
2019-Oct-17 13:54 237 23 gusting 36 13.5
2019-Oct-17 13:48 239 21 gusting 35 13.4
2019-Oct-17 13:42 235 21 gusting 36 13.4
2019-Oct-17 13:36 240 20 gusting 32 13.4
2019-Oct-17 13:30 245 22 gusting 36 13.4
2019-Oct-17 13:24 240 22 gusting 39 13.4
2019-Oct-17 13:18 236 22 gusting 37 13.3
2019-Oct-17 13:12 244 21 gusting 33 13.3
2019-Oct-17 13:06 243 23 gusting 43 13.3
2019-Oct-17 13:00 234 22 gusting 35 13.3
2019-Oct-17 12:54 233 22 gusting 42 13.3
2019-Oct-17 12:48 235 21 gusting 35 13.2
2019-Oct-17 12:42 231 23 gusting 36 13.1
2019-Oct-17 12:36 228 21 gusting 33 13.0
2019-Oct-17 12:30 228 20 gusting 34 13.1
2019-Oct-17 12:24 230 21 gusting 37 13.3
2019-Oct-17 12:18 238 18 gusting 31 13.2
2019-Oct-17 12:12 242 20 gusting 32 13.1
2019-Oct-17 12:06 241 19 gusting 31 13.1
2019-Oct-17 12:00 241 19 gusting 32 13.1
2019-Oct-17 11:54 242 22 gusting 37 13.0
2019-Oct-17 11:48 240 20 gusting 35 13.1
2019-Oct-17 11:42 246 22 gusting 36 13.0
2019-Oct-17 11:36 235 22 gusting 35 13.0
2019-Oct-17 11:30 230 20 gusting 37 12.8
2019-Oct-17 11:24 227 19 gusting 30 12.7
2019-Oct-17 11:18 222 18 gusting 30 12.6
2019-Oct-17 11:12 221 18 gusting 30 12.7
2019-Oct-17 11:06 219 17 gusting 30 12.7
2019-Oct-17 11:00 223 19 gusting 32 12.6
2019-Oct-17 10:54 220 18 gusting 35 12.5
2019-Oct-17 10:48 227 19 gusting 31 12.5
2019-Oct-17 10:42 224 18 gusting 28 12.4
2019-Oct-17 10:36 220 17 gusting 29 12.3
2019-Oct-17 10:30 215 18 gusting 31 12.4
2019-Oct-17 10:24 218 19 gusting 36 12.6
2019-Oct-17 10:18 218 19 gusting 30 12.5
2019-Oct-17 10:12 218 17 gusting 30 12.5
2019-Oct-17 10:06 219 19 gusting 33 12.5
2019-Oct-17 10:00 221 17 gusting 27 12.6
2019-Oct-17 09:54 220 19 gusting 29 12.6
2019-Oct-17 09:48 219 19 gusting 33 12.5
2019-Oct-17 09:42 222 20 gusting 32 12.6
2019-Oct-17 09:36 222 19 gusting 33 12.5
2019-Oct-17 09:30 224 19 gusting 33 12.5
2019-Oct-17 09:24 223 19 gusting 34 12.4
2019-Oct-17 09:18 222 18 gusting 29 12.4
2019-Oct-17 09:12 222 19 gusting 33 12.5
2019-Oct-17 09:06 225 16 gusting 26 12.5
2019-Oct-17 09:00 225 17 gusting 30 12.4
2019-Oct-17 08:54 223 17 gusting 29 12.4
2019-Oct-17 08:48 223 17 gusting 32 12.4
2019-Oct-17 08:42 224 18 gusting 32 12.5
2019-Oct-17 08:36 221 18 gusting 30 12.4
2019-Oct-17 08:30 225 18 gusting 29 12.4
2019-Oct-17 08:24 221 15 gusting 24 12.2
2019-Oct-17 08:18 221 17 gusting 28 12.3
2019-Oct-17 08:12 226 16 gusting 31 12.4
2019-Oct-17 08:06 230 18 gusting 31 12.3
2019-Oct-17 08:00 229 17 gusting 26 12.3
2019-Oct-17 07:54 232 16 gusting 27 12.4
2019-Oct-17 07:48 233 17 gusting 29 12.5
2019-Oct-17 07:42 227 15 gusting 25 12.4
2019-Oct-17 07:36 235 18 gusting 30 12.4
2019-Oct-17 07:30 238 19 gusting 30 12.4
2019-Oct-17 07:24 235 17 gusting 26 12.4
2019-Oct-17 07:18 236 19 gusting 28 12.5
2019-Oct-17 07:12 236 20 gusting 34 12.4
2019-Oct-17 07:06 236 21 gusting 32 12.5
2019-Oct-17 07:00 240 19 gusting 32 12.7
2019-Oct-17 06:54 241 20 gusting 30 12.6
2019-Oct-17 06:48 239 20 gusting 32 12.6
2019-Oct-17 06:42 238 19 gusting 32 12.6
2019-Oct-17 06:36 238 21 gusting 34 12.6
2019-Oct-17 06:30 239 20 gusting 34 12.6
2019-Oct-17 06:24 239 19 gusting 32 12.6
2019-Oct-17 06:18 239 20 gusting 34 12.6
2019-Oct-17 06:12 241 20 gusting 34 12.6
2019-Oct-17 06:06 239 20 gusting 32 12.6
2019-Oct-17 06:00 240 20 gusting 32 12.7
2019-Oct-17 05:54 242 20 gusting 33 12.7
2019-Oct-17 05:48 245 23 gusting 36 12.7
2019-Oct-17 05:42 243 22 gusting 35 12.8
2019-Oct-17 05:36 243 23 gusting 36 12.9
2019-Oct-17 05:30 243 21 gusting 34 12.9
2019-Oct-17 05:24 244 24 gusting 35 12.9
2019-Oct-17 05:18 248 23 gusting 39 12.9
2019-Oct-17 05:12 247 25 gusting 36 12.9
2019-Oct-17 05:06 249 22 gusting 35 12.9
2019-Oct-17 05:00 246 22 gusting 40 12.9
2019-Oct-17 04:54 252 23 gusting 40 13.0
2019-Oct-17 04:48 249 25 gusting 39 13.0
2019-Oct-17 04:42 248 25 gusting 41 13.0
2019-Oct-17 04:36 253 23 gusting 40 13.0
2019-Oct-17 04:30 254 24 gusting 36 13.0
2019-Oct-17 04:24 254 23 gusting 36 13.1
2019-Oct-17 04:18 252 25 gusting 38 13.1
2019-Oct-17 04:12 250 24 gusting 35 13.2
2019-Oct-17 04:06 253 22 gusting 35 13.3
2019-Oct-17 04:00 249 23 gusting 38 13.3
2019-Oct-17 03:54 252 25 gusting 38 13.4
2019-Oct-17 03:48 250 24 gusting 40 13.5
2019-Oct-17 03:42 256 25 gusting 36 13.6
2019-Oct-17 03:36 259 25 gusting 49 13.6
2019-Oct-17 03:30 252 27 gusting 41 13.7
2019-Oct-17 03:24 251 27 gusting 44 13.7
2019-Oct-17 03:18 257 27 gusting 42 13.7
2019-Oct-17 03:12 257 31 gusting 48 13.8
2019-Oct-17 03:06 260 28 gusting 39 13.8
2019-Oct-17 03:00 257 23 gusting 34 13.8
2019-Oct-17 02:54 261 25 gusting 39 13.9
2019-Oct-17 02:48 257 25 gusting 39 13.8
2019-Oct-17 02:42 257 27 gusting 40 13.9
2019-Oct-17 02:36 256 26 gusting 39 14.0
2019-Oct-17 02:30 254 25 gusting 39 14.0
2019-Oct-17 02:24 257 23 gusting 33 14.1
2019-Oct-17 02:18 259 29 gusting 43 14.1
2019-Oct-17 02:12 256 26 gusting 38 14.1
2019-Oct-17 02:06 261 30 gusting 42 14.2
2019-Oct-17 02:00 261 27 gusting 42 14.3
2019-Oct-17 01:54 255 27 gusting 42 14.3
2019-Oct-17 01:48 261 28 gusting 41 14.3
2019-Oct-17 01:42 259 30 gusting 42 14.4
2019-Oct-17 01:36 260 30 gusting 47 14.6
2019-Oct-17 01:30 261 31 gusting 45 14.7
2019-Oct-17 01:24 256 26 gusting 39 15.0
2019-Oct-17 01:18 256 28 gusting 46 15.1
2019-Oct-17 01:12 258 29 gusting 45 15.2
2019-Oct-17 01:06 254 29 gusting 45 15.3
2019-Oct-17 01:00 256 27 gusting 44 15.3
2019-Oct-17 00:54 259 27 gusting 41 15.4
2019-Oct-17 00:48 256 28 gusting 45 15.5
2019-Oct-17 00:42 259 27 gusting 43 15.5
2019-Oct-17 00:36 259 29 gusting 44 15.5
2019-Oct-17 00:30 254 26 gusting 41 15.6
2019-Oct-17 00:24 255 25 gusting 41 15.5
2019-Oct-17 00:18 261 28 gusting 43 15.6
2019-Oct-17 00:12 260 29 gusting 44 15.7
2019-Oct-17 00:06 256 26 gusting 39 15.9
2019-Oct-17 00:00 257 27 gusting 40 16.1
2019-Oct-16 23:54 256 22 gusting 33 16.3
2019-Oct-16 23:48 255 22 gusting 35 16.5
2019-Oct-16 23:42 249 19 gusting 30 16.5
2019-Oct-16 23:36 250 19 gusting 30 16.6
2019-Oct-16 23:30 256 21 gusting 33 16.6
2019-Oct-16 23:24 254 19 gusting 30 16.5
2019-Oct-16 23:18 252 18 gusting 25 16.5
2019-Oct-16 23:12 253 19 gusting 28 16.6
2019-Oct-16 23:06 246 20 gusting 35 16.7
2019-Oct-16 23:00 246 18 gusting 29 16.7
2019-Oct-16 22:54 244 19 gusting 31 17.0
2019-Oct-16 22:48 235 18 gusting 32 17.3
2019-Oct-16 22:42 237 18 gusting 29 17.4
2019-Oct-16 22:36 230 18 gusting 29 17.5
2019-Oct-16 22:30 220 20 gusting 33 18.3
2019-Oct-16 22:24 203 13 gusting 22 18.3
2019-Oct-16 22:18 199 12 gusting 19 18.3
2019-Oct-16 22:12 197 10 gusting 18 18.3
2019-Oct-16 22:06 194 9 gusting 17 18.4
2019-Oct-16 22:00 193 9 gusting 16 18.5
2019-Oct-16 21:54 183 10 gusting 16 18.5
2019-Oct-16 21:48 162 12 gusting 25 18.8
2019-Oct-16 21:42 136 17 gusting 31 18.9
2019-Oct-16 21:36 122 15 gusting 25 18.7
2019-Oct-16 21:30 115 12 gusting 23 18.6
2019-Oct-16 21:24 111 12 gusting 25 18.5
2019-Oct-16 21:18 115 13 gusting 25 18.3
2019-Oct-16 21:12 105 11 gusting 21 18.0
2019-Oct-16 21:06 103 11 gusting 22 17.9
2019-Oct-16 21:00 112 14 gusting 29 18.0
2019-Oct-16 20:54 119 16 gusting 33 18.0
2019-Oct-16 20:48 116 16 gusting 36 18.0
2019-Oct-16 20:42 117 17 gusting 35 18.0
2019-Oct-16 20:36 118 19 gusting 35 18.1
2019-Oct-16 20:30 121 20 gusting 35 18.1
2019-Oct-16 20:24 119 18 gusting 36 18.1
2019-Oct-16 20:18 123 19 gusting 31 18.1
2019-Oct-16 20:12 124 19 gusting 35 18.1
2019-Oct-16 20:06 123 20 gusting 34 18.0
2019-Oct-16 20:00 123 21 gusting 36 18.1
2019-Oct-16 19:54 122 23 gusting 37 18.2
2019-Oct-16 19:48 121 21 gusting 36 18.2
2019-Oct-16 19:42 121 20 gusting 35 18.2
2019-Oct-16 19:36 121 21 gusting 37 18.3
2019-Oct-16 19:30 122 20 gusting 38 18.4
2019-Oct-16 19:24 121 19 gusting 35 18.0
2019-Oct-16 19:18 115 14 gusting 28 17.6
2019-Oct-16 19:12 111 13 gusting 27 17.8
2019-Oct-16 19:06 116 17 gusting 36 17.7
2019-Oct-16 19:00 124 21 gusting 32 17.8
2019-Oct-16 18:54 125 18 gusting 33 18.7
2019-Oct-16 18:48 119 20 gusting 39 19.4
2019-Oct-16 18:42 103 13 gusting 27 19.6
2019-Oct-16 18:36 093 13 gusting 23 19.7
2019-Oct-16 18:30 090 13 gusting 23 19.8
2019-Oct-16 18:24 089 14 gusting 24 19.8
2019-Oct-16 18:18 088 14 gusting 24 19.8
2019-Oct-16 18:12 089 13 gusting 23 19.8
2019-Oct-16 18:06 089 13 gusting 22 19.9
2019-Oct-16 18:00 089 12 gusting 22 20.0
2019-Oct-16 17:54 090 14 gusting 26 20.0
2019-Oct-16 17:48 088 13 gusting 25 20.0
2019-Oct-16 17:42 088 15 gusting 26 20.1
2019-Oct-16 17:36 089 16 gusting 25 20.1
2019-Oct-16 17:30 089 16 gusting 26 20.2
2019-Oct-16 17:24 089 15 gusting 24 20.3
2019-Oct-16 17:18 087 15 gusting 24 20.4
2019-Oct-16 17:12 088 14 gusting 25 20.5
2019-Oct-16 17:06 089 15 gusting 24 20.5
2019-Oct-16 17:00 089 12 gusting 23 20.5